Hitachimaru — JD2063 — position and weather

sailwx.info

Track history (hours):
 
Tides and Currents Weather Stations Pressure Air Temp Water Temp Dewpoint Dewpoint Depression Visibility Wind Speed Wind Dir Waves Ship Positions

Hitachimaru

Last reported at 2017-May-23 03:59 UTC. Time now 2017-May-23 18:38 UTC.
Position N 34°37' E 135°02'.

Length 83 m; draft 4.7 m.

Type: Cargo ship. MMSI: 431301756.

Date/timePositionNaut miles runAvg speedWind from/ knotsBaromVisibWave heightAir tempDewpointWater temp
2017-May-23 03:59N 34°37' E 135°02'4 9.0
2017-May-23 03:30N 34°36' E 135°07'611.7
2017-May-23 03:00N 34°36' E 135°14'4 7.4
2017-May-23 02:29N 34°35' E 135°18'0 0.0
2017-May-23 02:00N 34°35' E 135°18'3 7.0
2017-May-23 01:30N 34°36' E 135°23'4 7.2
2017-May-23 01:00N 34°35' E 135°27'0 0.0
2017-May-23 00:06N 34°35' E 135°27'0 0.0
2017-May-22 23:42N 34°35' E 135°27'0 0.0
2017-May-22 23:30N 34°35' E 135°27'0 0.0
2017-May-22 23:00N 34°35' E 135°27'4 7.4
2017-May-22 22:30N 34°36' E 135°23'3 6.6
2017-May-22 22:00N 34°36' E 135°19'0 0.1
2017-May-22 21:24N 34°36' E 135°19'0 0.0
2017-May-22 21:00N 34°36' E 135°19'0 0.0
2017-May-22 20:30N 34°36' E 135°19'0 0.0
2017-May-22 19:54N 34°36' E 135°19'0 0.0
2017-May-22 19:30N 34°36' E 135°19'0 0.0
2017-May-22 19:00N 34°36' E 135°19'0 0.0
2017-May-22 18:30N 34°36' E 135°19'0 0.0
2017-May-22 18:00N 34°36' E 135°19'1 2.1
2017-May-22 17:30N 34°35' E 135°17'611.9
2017-May-22 17:00N 34°35' E 135°10'612.6
2017-May-22 16:30N 34°36' E 135°03'712.8
2017-May-22 15:56N 34°35' E 134°54'  
2017-May-19 21:24N 34°36' E 134°57'510.7
2017-May-19 20:59N 34°37' E 135°02'510.8
2017-May-19 20:30N 34°33' E 135°06'611.8
2017-May-19 20:00N 34°27' E 135°05'612.0
2017-May-19 19:29N 34°21' E 135°04'611.5
2017-May-19 19:00N 34°15' E 135°03'3 6.7
2017-May-19 18:31N 34°15' E 135°07'0 0.1
2017-May-19 18:01N 34°15' E 135°07'0 0.0
2017-May-19 17:28N 34°15' E 135°07'0 0.0
2017-May-19 16:58N 34°15' E 135°07'0 0.0
2017-May-19 16:28N 34°15' E 135°07'0 0.0
2017-May-19 15:58N 34°15' E 135°07'0 0.0
2017-May-19 15:28N 34°15' E 135°07'0 0.0
2017-May-19 14:52N 34°15' E 135°07'0 0.0
2017-May-19 13:55N 34°15' E 135°07'0 0.0
2017-May-19 13:19N 34°15' E 135°07'0 0.0
2017-May-19 11:23N 34°15' E 135°07'0 0.1
2017-May-19 10:59N 34°15' E 135°07'0 0.0
2017-May-19 10:29N 34°15' E 135°07'0 0.0
2017-May-19 09:59N 34°15' E 135°07'0 0.0
2017-May-19 09:29N 34°15' E 135°07'0 0.2
2017-May-19 08:59N 34°14' E 135°07'0 0.2
2017-May-19 08:29N 34°15' E 135°07'0 0.0
2017-May-19 07:59N 34°15' E 135°07'0 0.0
2017-May-19 07:29N 34°15' E 135°07'0 0.1
2017-May-19 06:59N 34°14' E 135°07'0 0.1
2017-May-19 06:30N 34°15' E 135°07'1 1.3
2017-May-19 06:00N 34°14' E 135°06'14 9.8
2017-May-19 04:38N 34°27' E 135°11'213.0
2017-May-19 04:30N 34°28' E 135°13'612.5
2017-May-19 04:00N 34°32' E 135°19'4 8.5
2017-May-19 03:30N 34°31' E 135°24'0 0.0
2017-May-19 00:41N 34°31' E 135°24'0 0.0
2017-May-19 00:29N 34°31' E 135°24'0 0.0
2017-May-18 02:45N 34°31' E 135°24'2 5.1
2017-May-18 02:21N 34°32' E 135°23'411.4
2017-May-18 01:58N 34°31' E 135°18'511.7
2017-May-18 01:30N 34°28' E 135°13'611.4
2017-May-18 01:00N 34°24' E 135°07'1410.4
2017-May-17 23:43N 34°13' E 134°59'411.2
2017-May-17 23:23N 34°09' E 134°60'411.6
2017-May-17 23:00N 34°05' E 135°01'  
2017-May-14 22:27N 34°57' E 139°44'612.6
2017-May-14 22:00N 35°02' E 139°43'713.6
2017-May-14 21:30N 35°09' E 139°45'713.0
2017-May-14 21:00N 35°16' E 139°46'612.7
2017-May-14 20:30N 35°21' E 139°42'4 7.5
2017-May-14 20:01N 35°23' E 139°38'0 0.0
2017-May-14 19:30N 35°23' E 139°38'0 0.0
2017-May-14 19:00N 35°23' E 139°38'0 0.0
2017-May-14 18:30N 35°23' E 139°38'0 0.0
2017-May-14 18:00N 35°23' E 139°38'0 0.0
2017-May-14 17:30N 35°23' E 139°38'0 0.0
2017-May-14 17:00N 35°23' E 139°38'0 0.0
2017-May-14 16:30N 35°23' E 139°38'0 0.0
2017-May-14 16:00N 35°23' E 139°38'0 0.0
2017-May-14 15:30N 35°23' E 139°38'0 0.0
2017-May-14 15:00N 35°23' E 139°38'0 0.0
2017-May-14 14:30N 35°23' E 139°38'0 0.0
2017-May-14 13:30N 35°23' E 139°38'0 0.0
2017-May-14 13:00N 35°23' E 139°38'0 0.0
2017-May-14 12:30N 35°23' E 139°38'0 0.0
2017-May-14 12:00N 35°23' E 139°38'0 0.0
2017-May-14 11:30N 35°23' E 139°38'0 0.0
2017-May-14 11:00N 35°23' E 139°38'0 0.0
2017-May-14 10:30N 35°23' E 139°38'0 0.0
2017-May-14 10:00N 35°23' E 139°38'0 0.0
2017-May-14 09:30N 35°23' E 139°38'0 0.0
2017-May-14 09:00N 35°23' E 139°38'0 0.0
2017-May-14 08:30N 35°23' E 139°38'0 0.0
2017-May-14 08:00N 35°23' E 139°38'0 0.0
2017-May-14 07:30N 35°23' E 139°38'0 0.0
2017-May-14 07:00N 35°23' E 139°38'0 0.0
2017-May-14 06:30N 35°23' E 139°38'0 0.0
2017-May-14 06:00N 35°23' E 139°38'0 0.0
2017-May-14 05:30N 35°23' E 139°38'0 0.0
2017-May-14 05:00N 35°23' E 139°38'0 0.0
2017-May-14 04:30N 35°23' E 139°38'0 0.0
2017-May-14 04:00N 35°23' E 139°38'0 0.0
2017-May-14 03:30N 35°23' E 139°38'0 0.0
2017-May-14 03:00N 35°23' E 139°38'0 0.0
2017-May-14 02:30N 35°23' E 139°38'0 0.0
2017-May-14 02:00N 35°23' E 139°38'0 0.0
2017-May-14 01:30N 35°23' E 139°38'0 0.0
2017-May-14 01:00N 35°23' E 139°38'0 0.0
2017-May-14 00:30N 35°23' E 139°38'0 0.0
2017-May-14 00:00N 35°23' E 139°38'0 0.0
2017-May-13 23:30N 35°23' E 139°38'0 0.0
2017-May-13 23:00N 35°23' E 139°38'0 0.3
2017-May-13 22:30N 35°23' E 139°38'3 5.2
2017-May-13 22:00N 35°23' E 139°42'713.0
2017-May-13 21:30N 35°27' E 139°48'713.4
2017-May-13 21:00N 35°32' E 139°53'6 0.8
2017-May-13 13:03N 35°37' E 139°58'111.7
2017-May-13 13:00N 35°37' E 139°58'  
Track history (hours):
 
Tides and Currents Weather Stations Pressure Air Temp Water Temp Dewpoint Dewpoint Depression Visibility Wind Speed Wind Dir Waves Ship Positions

Hitachimaru

Last reported at 2017-May-23 03:59 UTC. Time now 2017-May-23 18:38 UTC.
Position N 34°37' E 135°02'.

Length 83 m; draft 4.7 m.

Type: Cargo ship. MMSI: 431301756.

Date/timePositionNaut miles runAvg speedWind from/ knotsBaromVisibWave heightAir tempDewpointWater temp
2017-May-23 03:59N 34°37' E 135°02'4 9.0
2017-May-23 03:30N 34°36' E 135°07'611.7
2017-May-23 03:00N 34°36' E 135°14'4 7.4
2017-May-23 02:29N 34°35' E 135°18'0 0.0
2017-May-23 02:00N 34°35' E 135°18'3 7.0
2017-May-23 01:30N 34°36' E 135°23'4 7.2
2017-May-23 01:00N 34°35' E 135°27'0 0.0
2017-May-23 00:06N 34°35' E 135°27'0 0.0
2017-May-22 23:42N 34°35' E 135°27'0 0.0
2017-May-22 23:30N 34°35' E 135°27'0 0.0
2017-May-22 23:00N 34°35' E 135°27'4 7.4
2017-May-22 22:30N 34°36' E 135°23'3 6.6
2017-May-22 22:00N 34°36' E 135°19'0 0.1
2017-May-22 21:24N 34°36' E 135°19'0 0.0
2017-May-22 21:00N 34°36' E 135°19'0 0.0
2017-May-22 20:30N 34°36' E 135°19'0 0.0
2017-May-22 19:54N 34°36' E 135°19'0 0.0
2017-May-22 19:30N 34°36' E 135°19'0 0.0
2017-May-22 19:00N 34°36' E 135°19'0 0.0
2017-May-22 18:30N 34°36' E 135°19'0 0.0
2017-May-22 18:00N 34°36' E 135°19'1 2.1
2017-May-22 17:30N 34°35' E 135°17'611.9
2017-May-22 17:00N 34°35' E 135°10'612.6
2017-May-22 16:30N 34°36' E 135°03'712.8
2017-May-22 15:56N 34°35' E 134°54'  
2017-May-19 21:24N 34°36' E 134°57'510.7
2017-May-19 20:59N 34°37' E 135°02'510.8
2017-May-19 20:30N 34°33' E 135°06'611.8
2017-May-19 20:00N 34°27' E 135°05'612.0
2017-May-19 19:29N 34°21' E 135°04'611.5
2017-May-19 19:00N 34°15' E 135°03'3 6.7
2017-May-19 18:31N 34°15' E 135°07'0 0.1
2017-May-19 18:01N 34°15' E 135°07'0 0.0
2017-May-19 17:28N 34°15' E 135°07'0 0.0
2017-May-19 16:58N 34°15' E 135°07'0 0.0
2017-May-19 16:28N 34°15' E 135°07'0 0.0
2017-May-19 15:58N 34°15' E 135°07'0 0.0
2017-May-19 15:28N 34°15' E 135°07'0 0.0
2017-May-19 14:52N 34°15' E 135°07'0 0.0
2017-May-19 13:55N 34°15' E 135°07'0 0.0
2017-May-19 13:19N 34°15' E 135°07'0 0.0
2017-May-19 11:23N 34°15' E 135°07'0 0.1
2017-May-19 10:59N 34°15' E 135°07'0 0.0
2017-May-19 10:29N 34°15' E 135°07'0 0.0
2017-May-19 09:59N 34°15' E 135°07'0 0.0
2017-May-19 09:29N 34°15' E 135°07'0 0.2
2017-May-19 08:59N 34°14' E 135°07'0 0.2
2017-May-19 08:29N 34°15' E 135°07'0 0.0
2017-May-19 07:59N 34°15' E 135°07'0 0.0
2017-May-19 07:29N 34°15' E 135°07'0 0.1
2017-May-19 06:59N 34°14' E 135°07'0 0.1
2017-May-19 06:30N 34°15' E 135°07'1 1.3
2017-May-19 06:00N 34°14' E 135°06'14 9.8
2017-May-19 04:38N 34°27' E 135°11'213.0
2017-May-19 04:30N 34°28' E 135°13'612.5
2017-May-19 04:00N 34°32' E 135°19'4 8.5
2017-May-19 03:30N 34°31' E 135°24'0 0.0
2017-May-19 00:41N 34°31' E 135°24'0 0.0
2017-May-19 00:29N 34°31' E 135°24'0 0.0
2017-May-18 02:45N 34°31' E 135°24'2 5.1
2017-May-18 02:21N 34°32' E 135°23'411.4
2017-May-18 01:58N 34°31' E 135°18'511.7
2017-May-18 01:30N 34°28' E 135°13'611.4
2017-May-18 01:00N 34°24' E 135°07'1410.4
2017-May-17 23:43N 34°13' E 134°59'411.2
2017-May-17 23:23N 34°09' E 134°60'411.6
2017-May-17 23:00N 34°05' E 135°01'  
2017-May-14 22:27N 34°57' E 139°44'612.6
2017-May-14 22:00N 35°02' E 139°43'713.6
2017-May-14 21:30N 35°09' E 139°45'713.0
2017-May-14 21:00N 35°16' E 139°46'612.7
2017-May-14 20:30N 35°21' E 139°42'4 7.5
2017-May-14 20:01N 35°23' E 139°38'0 0.0
2017-May-14 19:30N 35°23' E 139°38'0 0.0
2017-May-14 19:00N 35°23' E 139°38'0 0.0
2017-May-14 18:30N 35°23' E 139°38'0 0.0
2017-May-14 18:00N 35°23' E 139°38'0 0.0
2017-May-14 17:30N 35°23' E 139°38'0 0.0
2017-May-14 17:00N 35°23' E 139°38'0 0.0
2017-May-14 16:30N 35°23' E 139°38'0 0.0
2017-May-14 16:00N 35°23' E 139°38'0 0.0
2017-May-14 15:30N 35°23' E 139°38'0 0.0
2017-May-14 15:00N 35°23' E 139°38'0 0.0
2017-May-14 14:30N 35°23' E 139°38'0 0.0
2017-May-14 13:30N 35°23' E 139°38'0 0.0
2017-May-14 13:00N 35°23' E 139°38'0 0.0
2017-May-14 12:30N 35°23' E 139°38'0 0.0
2017-May-14 12:00N 35°23' E 139°38'0 0.0
2017-May-14 11:30N 35°23' E 139°38'0 0.0
2017-May-14 11:00N 35°23' E 139°38'0 0.0
2017-May-14 10:30N 35°23' E 139°38'0 0.0
2017-May-14 10:00N 35°23' E 139°38'0 0.0
2017-May-14 09:30N 35°23' E 139°38'0 0.0
2017-May-14 09:00N 35°23' E 139°38'0 0.0
2017-May-14 08:30N 35°23' E 139°38'0 0.0
2017-May-14 08:00N 35°23' E 139°38'0 0.0
2017-May-14 07:30N 35°23' E 139°38'0 0.0
2017-May-14 07:00N 35°23' E 139°38'0 0.0
2017-May-14 06:30N 35°23' E 139°38'0 0.0
2017-May-14 06:00N 35°23' E 139°38'0 0.0
2017-May-14 05:30N 35°23' E 139°38'0 0.0
2017-May-14 05:00N 35°23' E 139°38'0 0.0
2017-May-14 04:30N 35°23' E 139°38'0 0.0
2017-May-14 04:00N 35°23' E 139°38'0 0.0
2017-May-14 03:30N 35°23' E 139°38'0 0.0
2017-May-14 03:00N 35°23' E 139°38'0 0.0
2017-May-14 02:30N 35°23' E 139°38'0 0.0
2017-May-14 02:00N 35°23' E 139°38'0 0.0
2017-May-14 01:30N 35°23' E 139°38'0 0.0
2017-May-14 01:00N 35°23' E 139°38'0 0.0
2017-May-14 00:30N 35°23' E 139°38'0 0.0
2017-May-14 00:00N 35°23' E 139°38'0 0.0
2017-May-13 23:30N 35°23' E 139°38'0 0.0
2017-May-13 23:00N 35°23' E 139°38'0 0.3
2017-May-13 22:30N 35°23' E 139°38'3 5.2
2017-May-13 22:00N 35°23' E 139°42'713.0
2017-May-13 21:30N 35°27' E 139°48'713.4
2017-May-13 21:00N 35°32' E 139°53'6 0.8
2017-May-13 13:03N 35°37' E 139°58'111.7
2017-May-13 13:00N 35°37' E 139°58'  

Dump ship's entire track history